createdAt,value
2022-11-15T00:00:37.583Z,100793.13
2022-11-15T00:03:28.400Z,100798.34
2022-11-15T00:06:14.766Z,100768.91
2022-11-15T00:09:01.189Z,100797.34
2022-11-15T00:11:46.990Z,100801.75
2022-11-15T00:14:32.998Z,100792.16
2022-11-15T00:17:18.972Z,100777.34
2022-11-15T00:20:06.503Z,100786.81
2022-11-15T00:22:52.561Z,100780.78
2022-11-15T00:25:38.519Z,100784.25
2022-11-15T00:28:25.139Z,100771.25
2022-11-15T00:31:15.616Z,100771.22
2022-11-15T00:34:01.632Z,100785.97
2022-11-15T00:36:47.653Z,100789.44
2022-11-15T00:39:33.722Z,100786.81
2022-11-15T00:42:19.369Z,100785.00
2022-11-15T00:45:05.662Z,100785.94
2022-11-15T00:47:52.425Z,100785.97
2022-11-15T00:50:37.971Z,100757.31
2022-11-15T00:53:24.047Z,100761.53
2022-11-15T00:56:09.998Z,100755.53
2022-11-15T00:58:55.785Z,100761.66
2022-11-15T01:01:41.737Z,100765.91
2022-11-15T01:04:27.683Z,100760.69
2022-11-15T01:07:14.139Z,100771.91
2022-11-15T01:10:00.169Z,100745.09
2022-11-15T01:12:46.053Z,100755.41
2022-11-15T01:15:32.117Z,100751.94
2022-11-15T01:18:18.204Z,100696.53
2022-11-15T01:21:13.297Z,100763.09
2022-11-15T01:23:59.133Z,100739.88
2022-11-15T01:26:45.158Z,100757.97
2022-11-15T01:29:30.786Z,100691.22
2022-11-15T01:32:16.763Z,100736.97
2022-11-15T01:35:02.463Z,100729.31
2022-11-15T01:37:48.322Z,100750.97
2022-11-15T01:40:34.084Z,100755.34
2022-11-15T01:43:29.894Z,100751.94
2022-11-15T01:46:38.883Z,100748.50
2022-11-15T01:49:26.048Z,100729.38
2022-11-15T01:52:16.298Z,100728.59
2022-11-15T01:55:06.393Z,100747.66
2022-11-15T01:57:56.399Z,100727.78
2022-11-15T02:00:42.690Z,100720.88
2022-11-15T02:03:39.038Z,100745.91
2022-11-15T02:06:25.638Z,100726.06
2022-11-15T02:09:12.859Z,100752.06
2022-11-15T02:11:59.604Z,100719.03
2022-11-15T02:14:53.087Z,100725.13
2022-11-15T02:17:53.047Z,100735.53
2022-11-15T02:20:45.497Z,100728.69
2022-11-15T02:23:53.015Z,100731.31
2022-11-15T02:27:09.894Z,100731.22
2022-11-15T02:30:05.045Z,100712.88
2022-11-15T02:33:22.841Z,100723.38
2022-11-15T02:36:19.779Z,100696.47
2022-11-15T02:39:25.212Z,100702.63
2022-11-15T02:42:53.075Z,100719.72
2022-11-15T02:46:17.002Z,100699.84
2022-11-15T02:49:02.943Z,100695.50
2022-11-15T02:51:52.012Z,100689.41
2022-11-15T02:54:37.972Z,100693.81
2022-11-15T02:57:52.479Z,100689.34
2022-11-15T03:00:57.182Z,100678.13
2022-11-15T03:04:25.254Z,100686.06
2022-11-15T03:07:43.997Z,100664.56
2022-11-15T03:10:35.585Z,100689.72
2022-11-15T03:13:37.172Z,100675.91
2022-11-15T03:16:43.152Z,100640.41
2022-11-15T03:19:44.141Z,100676.53
2022-11-15T03:22:34.329Z,100682.78
2022-11-15T03:25:25.295Z,100657.78
2022-11-15T03:28:17.953Z,100617.16
2022-11-15T03:31:28.192Z,100655.97
2022-11-15T03:34:36.428Z,100673.28
2022-11-15T03:37:30.234Z,100662.78
2022-11-15T03:40:18.642Z,100649.78
2022-11-15T03:43:20.863Z,100642.78
2022-11-15T03:46:17.477Z,100608.13
2022-11-15T03:49:27.075Z,100622.81
2022-11-15T03:52:13.393Z,100625.25
2022-11-15T03:55:02.814Z,100613.13
2022-11-15T03:57:51.820Z,100647.84
2022-11-15T04:00:37.710Z,100636.47
2022-11-15T04:03:23.913Z,100640.91
2022-11-15T04:06:10.371Z,100663.53
2022-11-15T04:08:56.302Z,100643.72
2022-11-15T04:11:42.160Z,100666.31
2022-11-15T04:14:28.190Z,100647.28
2022-11-15T04:17:14.240Z,100648.16
2022-11-15T04:20:18.700Z,100653.47
2022-11-15T04:23:26.093Z,100656.94
2022-11-15T04:26:23.396Z,100658.69
2022-11-15T04:29:27.735Z,100644.91
2022-11-15T04:32:13.552Z,100620.75
2022-11-15T04:34:59.382Z,100631.16
2022-11-15T04:37:49.084Z,100627.66
2022-11-15T04:40:35.997Z,100636.19
2022-11-15T04:43:21.881Z,100626.59
2022-11-15T04:46:07.849Z,100637.88
2022-11-15T04:48:58.569Z,100642.16
2022-11-15T04:51:45.786Z,100629.28
2022-11-15T04:54:31.486Z,100630.91
2022-11-15T04:57:17.479Z,100631.78
2022-11-15T05:00:09.045Z,100640.44
2022-11-15T05:03:14.418Z,100621.41
2022-11-15T05:06:00.409Z,100621.41
2022-11-15T05:08:46.489Z,100640.41
2022-11-15T05:11:32.535Z,100627.31
2022-11-15T05:14:18.417Z,100629.03
2022-11-15T05:17:04.301Z,100602.22
2022-11-15T05:19:50.131Z,100603.84
2022-11-15T05:22:35.859Z,100617.63
2022-11-15T05:25:21.655Z,100619.44
2022-11-15T05:28:07.465Z,100608.09
2022-11-15T05:30:53.311Z,100596.06
2022-11-15T05:33:40.598Z,100594.25
2022-11-15T05:36:38.848Z,100612.25
2022-11-15T05:39:24.377Z,100596.66
2022-11-15T05:42:11.620Z,100609.59
2022-11-15T05:44:59.614Z,100592.94
2022-11-15T05:47:46.535Z,100593.78
2022-11-15T05:50:32.943Z,100582.38
2022-11-15T05:53:22.702Z,100588.41
2022-11-15T05:56:10.079Z,100607.56
2022-11-15T05:58:59.702Z,100609.31
2022-11-15T06:01:45.923Z,100593.78
2022-11-15T06:04:32.159Z,100595.47
2022-11-15T06:07:18.198Z,100576.25
2022-11-15T06:10:04.743Z,100568.34
2022-11-15T06:13:06.278Z,100586.41
2022-11-15T06:15:52.343Z,100593.19
2022-11-15T06:18:38.806Z,100583.09
2022-11-15T06:21:24.678Z,100564.06
2022-11-15T06:24:10.311Z,100593.34
2022-11-15T06:26:56.322Z,100603.88
2022-11-15T06:29:42.186Z,100614.91
2022-11-15T06:32:28.053Z,100595.75
2022-11-15T06:35:14.993Z,100617.22
2022-11-15T06:38:06.694Z,100603.59
2022-11-15T06:40:52.899Z,100609.59
2022-11-15T06:43:39.450Z,100592.84
2022-11-15T06:46:25.018Z,100592.66
2022-11-15T06:49:10.994Z,100582.13
2022-11-15T06:51:57.076Z,100588.00
2022-11-15T06:54:43.018Z,100592.97
2022-11-15T06:57:28.934Z,100581.22
2022-11-15T07:00:15.740Z,100588.03
2022-11-15T07:03:02.210Z,100595.91
2022-11-15T07:05:55.705Z,100587.28
2022-11-15T07:08:42.803Z,100580.16
2022-11-15T07:11:28.919Z,100586.84
2022-11-15T07:14:14.765Z,100567.97
2022-11-15T07:17:00.716Z,100607.09
2022-11-15T07:19:46.575Z,100563.19
2022-11-15T07:22:32.421Z,100604.78
2022-11-15T07:25:18.148Z,100592.59
2022-11-15T07:28:04.771Z,100601.94
2022-11-15T07:30:50.691Z,100602.78
2022-11-15T07:33:36.947Z,100535.38
2022-11-15T07:36:22.811Z,100572.91
2022-11-15T07:39:08.730Z,100559.13
2022-11-15T07:42:14.598Z,100567.31
2022-11-15T07:45:00.178Z,100552.03
2022-11-15T07:47:50.677Z,100566.88
2022-11-15T07:50:36.499Z,100574.19
2022-11-15T07:53:22.380Z,100568.47
2022-11-15T07:56:08.723Z,100575.25
2022-11-15T07:58:54.579Z,100587.34
2022-11-15T08:01:40.414Z,100556.59
2022-11-15T08:04:26.036Z,100566.63
2022-11-15T08:07:12.049Z,100569.25
2022-11-15T08:09:58.310Z,100564.22
2022-11-15T08:12:44.277Z,100563.00
2022-11-15T08:15:31.028Z,100560.50
2022-11-15T08:18:17.451Z,100577.09
2022-11-15T08:21:03.562Z,100551.16
2022-11-15T08:23:49.456Z,100570.97
2022-11-15T08:26:36.059Z,100575.59
2022-11-15T08:29:21.720Z,100520.19
2022-11-15T08:32:08.286Z,100586.78
2022-11-15T08:34:53.824Z,100568.69
2022-11-15T08:37:39.761Z,100578.09
2022-11-15T08:40:25.581Z,100541.41
2022-11-15T08:43:11.369Z,100566.19
2022-11-15T08:45:58.924Z,100573.97
2022-11-15T08:48:44.791Z,100547.03
2022-11-15T08:51:30.592Z,100552.75
2022-11-15T08:54:16.424Z,100550.19
2022-11-15T08:57:02.158Z,100549.22
2022-11-15T08:59:48.173Z,100559.75
2022-11-15T09:02:33.967Z,100558.84
2022-11-15T09:05:19.871Z,100523.09
2022-11-15T09:08:25.035Z,100545.38
2022-11-15T09:11:13.517Z,100536.06
2022-11-15T09:13:59.451Z,100548.09
2022-11-15T09:16:45.213Z,100536.53
2022-11-15T09:19:31.149Z,100528.66
2022-11-15T09:22:16.750Z,100526.69
2022-11-15T09:25:03.248Z,100499.19
2022-11-15T09:31:00.233Z,100507.28
2022-11-15T09:33:46.931Z,100514.94
2022-11-15T09:36:32.859Z,100504.72
2022-11-15T09:39:18.659Z,100503.94
2022-11-15T09:42:38.678Z,100505.56
2022-11-15T09:45:36.723Z,100470.03
2022-11-15T09:48:55.134Z,100478.19
2022-11-15T09:51:49.820Z,100492.59
2022-11-15T09:54:52.871Z,100487.78
2022-11-15T09:57:36.254Z,100485.56
2022-11-15T10:00:50.552Z,100479.53
2022-11-15T10:03:30.121Z,100470.13
2022-11-15T10:06:06.344Z,100451.84
2022-11-15T10:08:57.726Z,100443.31
2022-11-15T10:11:38.291Z,100409.19
2022-11-15T10:14:18.235Z,100426.13
2022-11-15T10:16:45.421Z,100450.47
2022-11-15T10:19:42.011Z,100453.22
2022-11-15T10:22:18.180Z,100459.66
2022-11-15T10:24:46.923Z,100459.25
2022-11-15T10:27:17.500Z,100456.91
2022-11-15T10:29:50.363Z,100453.03
2022-11-15T10:32:20.011Z,100446.06
2022-11-15T10:34:48.023Z,100445.75
2022-11-15T10:37:15.907Z,100424.81
2022-11-15T10:42:30.189Z,100434.03
2022-11-15T10:44:57.552Z,100441.41
2022-11-15T10:47:37.740Z,100438.75
2022-11-15T10:50:32.615Z,100439.13
2022-11-15T10:53:02.363Z,100421.97
2022-11-15T10:55:32.856Z,100409.19
2022-11-15T10:58:29.626Z,100421.31
2022-11-15T11:01:09.110Z,100411.06
2022-11-15T11:03:41.709Z,100417.13
2022-11-15T11:06:18.137Z,100396.75
2022-11-15T11:09:01.637Z,100394.16
2022-11-15T11:11:46.418Z,100379.34
2022-11-15T11:14:28.181Z,100390.53
2022-11-15T11:17:03.933Z,100385.88
2022-11-15T11:19:49.782Z,100395.22
2022-11-15T11:22:36.143Z,100365.25
2022-11-15T11:25:26.945Z,100384.69
2022-11-15T11:28:00.128Z,100386.13
2022-11-15T11:30:59.404Z,100382.34
2022-11-15T11:33:49.633Z,100356.13
2022-11-15T11:36:40.963Z,100348.84
2022-11-15T11:39:17.212Z,100350.75
2022-11-15T11:41:50.478Z,100351.88
2022-11-15T11:44:31.592Z,100349.72
2022-11-15T11:47:10.450Z,100338.50
2022-11-15T11:49:48.136Z,100326.41
2022-11-15T11:52:32.584Z,100284.06
2022-11-15T11:55:12.102Z,100337.63
2022-11-15T11:57:54.588Z,100347.13
2022-11-15T12:00:29.477Z,100311.88
2022-11-15T12:03:15.190Z,100326.66
2022-11-15T12:05:47.664Z,100328.63
2022-11-15T12:08:33.614Z,100334.03
2022-11-15T12:11:06.091Z,100296.25
2022-11-15T12:13:37.680Z,100301.66
2022-11-15T12:16:18.467Z,100304.44
2022-11-15T12:18:51.369Z,100305.09
2022-11-15T12:21:49.627Z,100308.44
2022-11-15T12:24:26.638Z,100291.44
2022-11-15T12:27:08.244Z,100281.97
2022-11-15T12:29:44.486Z,100297.69
2022-11-15T12:32:34.530Z,100289.69
2022-11-15T12:35:04.766Z,100301.53
2022-11-15T12:37:44.289Z,100295.22
2022-11-15T12:40:26.157Z,100285.06
2022-11-15T12:43:15.047Z,100290.53
2022-11-15T12:45:46.651Z,100276.38
2022-11-15T12:48:17.141Z,100279.91
2022-11-15T12:50:56.458Z,100290.72
2022-11-15T12:53:23.744Z,100294.09
2022-11-15T12:56:10.981Z,100288.63
2022-11-15T12:58:49.080Z,100283.94
2022-11-15T13:01:31.996Z,100278.28
2022-11-15T13:04:21.156Z,100279.31
2022-11-15T13:06:54.218Z,100282.88
2022-11-15T13:09:30.906Z,100278.31
2022-11-15T13:12:00.066Z,100270.22
2022-11-15T13:14:59.460Z,100249.28
2022-11-15T13:17:35.494Z,100270.03
2022-11-15T13:20:16.118Z,100240.59
2022-11-15T13:23:00.058Z,100261.38
2022-11-15T13:26:02.088Z,100261.28
2022-11-15T13:28:56.923Z,100219.59
2022-11-15T13:31:28.489Z,100217.81
2022-11-15T13:34:00.688Z,100207.34
2022-11-15T13:36:37.090Z,100243.06
2022-11-15T13:39:24.342Z,100242.72
2022-11-15T13:41:52.911Z,100217.16
2022-11-15T13:44:32.422Z,100200.09
2022-11-15T13:47:16.866Z,100223.72
2022-11-15T13:49:44.271Z,100204.00
2022-11-15T13:52:15.838Z,100232.00
2022-11-15T13:55:03.330Z,100225.56
2022-11-15T13:57:53.244Z,100204.13
2022-11-15T14:00:23.724Z,100225.56
2022-11-15T14:02:51.415Z,100205.50
2022-11-15T14:05:22.075Z,100117.34
2022-11-15T14:08:14.637Z,100206.53
2022-11-15T14:10:42.138Z,100201.06
2022-11-15T14:13:28.202Z,100218.28
2022-11-15T14:15:55.473Z,100180.88
2022-11-15T14:18:43.512Z,100216.22
2022-11-15T14:21:11.498Z,100180.00
2022-11-15T14:23:39.032Z,100178.13
2022-11-15T14:26:11.901Z,100170.28
2022-11-15T14:28:40.303Z,100187.13
2022-11-15T14:31:19.573Z,100208.28
2022-11-15T14:33:47.003Z,100223.31
2022-11-15T14:36:15.617Z,100216.28
2022-11-15T14:38:44.107Z,100166.53
2022-11-15T14:41:24.030Z,100200.94
2022-11-15T14:43:52.987Z,100201.06
2022-11-15T14:46:20.528Z,100164.16
2022-11-15T14:48:47.886Z,100161.91
2022-11-15T14:51:18.675Z,100197.88
2022-11-15T14:53:46.927Z,100194.69
2022-11-15T14:56:15.560Z,100173.53
2022-11-15T14:58:43.602Z,100199.91
2022-11-15T15:01:26.730Z,100192.38
2022-11-15T15:03:57.943Z,100154.66
2022-11-15T15:06:26.376Z,100179.16
2022-11-15T15:08:53.680Z,100151.59
2022-11-15T15:11:24.337Z,100164.75
2022-11-15T15:13:52.278Z,100205.59
2022-11-15T15:16:20.102Z,100203.69
2022-11-15T15:18:47.517Z,100196.09
2022-11-15T15:21:23.180Z,100198.84
2022-11-15T15:23:51.066Z,100203.63
2022-11-15T15:26:18.628Z,100169.44
2022-11-15T15:28:45.968Z,100166.31
2022-11-15T15:31:14.092Z,100167.03
2022-11-15T15:33:41.732Z,100176.81
2022-11-15T15:36:13.321Z,100183.75
2022-11-15T15:38:43.410Z,100197.00
2022-11-15T15:41:15.265Z,100207.97
2022-11-15T15:43:42.869Z,100202.84
2022-11-15T15:46:15.406Z,100190.84
2022-11-15T15:48:43.371Z,100207.19
2022-11-15T15:51:18.498Z,100177.50
2022-11-15T15:53:48.064Z,100186.25
2022-11-15T15:56:15.441Z,100202.38
2022-11-15T15:58:42.900Z,100199.16
2022-11-15T16:01:10.273Z,100182.53
2022-11-15T16:03:37.634Z,100182.13
2022-11-15T16:06:06.105Z,100177.78
2022-11-15T16:08:47.679Z,100201.19
2022-11-15T16:11:20.806Z,100187.53
2022-11-15T16:13:48.086Z,100175.25
2022-11-15T16:16:15.754Z,100178.91
2022-11-15T16:18:43.003Z,100174.81
2022-11-15T16:21:10.325Z,100170.13
2022-11-15T16:23:37.773Z,100194.75
2022-11-15T16:26:22.655Z,100194.69
2022-11-15T16:28:50.060Z,100170.97
2022-11-15T16:31:19.326Z,100142.25
2022-11-15T16:33:47.166Z,100157.59
2022-11-15T16:36:26.920Z,100174.19
2022-11-15T16:38:57.187Z,100153.84
2022-11-15T16:41:24.506Z,100143.31
2022-11-15T16:43:52.328Z,100143.63
2022-11-15T16:46:22.056Z,100163.94
2022-11-15T16:48:49.769Z,100161.06
2022-11-15T16:51:17.424Z,100140.41
2022-11-15T16:53:44.915Z,100132.31
2022-11-15T16:56:28.804Z,100176.19
2022-11-15T16:59:00.367Z,100175.50
2022-11-15T17:01:32.766Z,100176.41
2022-11-15T17:04:12.629Z,100155.06
2022-11-15T17:06:41.235Z,100161.00
2022-11-15T17:09:20.585Z,100146.09
2022-11-15T17:11:47.977Z,100156.72
2022-11-15T17:14:16.753Z,100147.34
2022-11-15T17:16:44.564Z,100115.97
2022-11-15T17:19:17.104Z,100128.72
2022-11-15T17:21:45.795Z,100151.25
2022-11-15T17:24:13.154Z,100159.06
2022-11-15T17:26:41.143Z,100145.28
2022-11-15T17:29:09.044Z,100157.00
2022-11-15T17:31:37.087Z,100148.50
2022-11-15T17:34:05.909Z,100086.69
2022-11-15T17:36:33.948Z,100143.69
2022-11-15T17:39:01.823Z,100136.28
2022-11-15T17:41:29.985Z,100128.69
2022-11-15T17:44:00.016Z,100101.25
2022-11-15T17:46:28.838Z,100114.22
2022-11-15T17:48:57.341Z,100132.09
2022-11-15T17:51:25.327Z,100105.88
2022-11-15T17:53:53.333Z,100140.59
2022-11-15T17:56:23.139Z,100127.66
2022-11-15T17:58:56.051Z,100129.41
2022-11-15T18:01:25.341Z,100126.38
2022-11-15T18:03:53.486Z,100119.88
2022-11-15T18:06:22.226Z,100113.06
2022-11-15T18:08:51.527Z,100109.66
2022-11-15T18:11:21.803Z,100100.47
2022-11-15T18:13:53.841Z,100070.78
2022-11-15T18:16:26.071Z,100091.41
2022-11-15T18:18:55.066Z,100080.81
2022-11-15T18:21:30.278Z,100090.28
2022-11-15T18:23:59.806Z,100081.44
2022-11-15T18:26:29.198Z,100073.56
2022-11-15T18:29:02.035Z,100069.34
2022-11-15T18:31:31.189Z,100105.59
2022-11-15T18:34:00.640Z,100098.16
2022-11-15T18:36:30.146Z,100078.81
2022-11-15T18:39:00.156Z,100089.75
2022-11-15T18:41:30.966Z,100085.84
2022-11-15T18:44:01.990Z,100100.66
2022-11-15T18:46:32.163Z,100094.84
2022-11-15T18:49:01.303Z,100093.13
2022-11-15T18:51:30.710Z,100094.63
2022-11-15T18:54:00.622Z,100080.38
2022-11-15T18:56:29.306Z,100092.38
2022-11-15T18:58:59.126Z,100083.81
2022-11-15T19:01:40.832Z,100056.25
2022-11-15T19:04:14.362Z,100065.38
2022-11-15T19:06:43.468Z,100011.59
2022-11-15T19:09:15.265Z,100055.22
2022-11-15T19:11:44.202Z,100080.41
2022-11-15T19:14:13.466Z,100085.13
2022-11-15T19:16:46.136Z,100081.06
2022-11-15T19:19:16.070Z,100071.38
2022-11-15T19:21:43.721Z,100084.88
2022-11-15T19:24:11.071Z,100066.75
2022-11-15T19:26:39.176Z,100067.78
2022-11-15T19:29:08.036Z,100064.56
2022-11-15T19:31:35.377Z,100038.88
2022-11-15T19:34:04.703Z,100087.22
2022-11-15T19:36:37.258Z,100057.69
2022-11-15T19:39:09.135Z,100077.63
2022-11-15T19:41:38.611Z,100090.69
2022-11-15T19:44:06.719Z,100085.94
2022-11-15T19:46:34.892Z,100086.31
2022-11-15T19:49:02.336Z,100090.38
2022-11-15T19:51:30.907Z,100062.09
2022-11-15T19:54:06.771Z,100083.56
2022-11-15T19:56:35.053Z,100054.97
2022-11-15T19:59:03.147Z,100065.34
2022-11-15T20:01:36.211Z,100047.66
2022-11-15T20:04:03.818Z,100075.81
2022-11-15T20:06:37.250Z,100046.03
2022-11-15T20:09:04.813Z,100055.72
2022-11-15T20:11:34.134Z,100019.06
2022-11-15T20:14:02.689Z,100054.16
2022-11-15T20:16:30.458Z,100044.84
2022-11-15T20:18:58.074Z,100048.69
2022-11-15T20:21:25.430Z,100035.19
2022-11-15T20:23:52.756Z,100043.72
2022-11-15T20:26:20.784Z,100041.94
2022-11-15T20:28:49.111Z,100029.59
2022-11-15T20:31:17.431Z,100045.13
2022-11-15T20:33:45.072Z,100008.31
2022-11-15T20:36:15.452Z,100038.31
2022-11-15T20:38:44.206Z,100028.81
2022-11-15T20:41:12.867Z,100041.03
2022-11-15T20:43:43.443Z,100021.22
2022-11-15T20:46:12.340Z,100034.13
2022-11-15T20:48:40.406Z,100030.81
2022-11-15T20:51:12.193Z,100028.63
2022-11-15T20:53:41.071Z,100036.69
2022-11-15T20:56:14.461Z,100025.59
2022-11-15T20:58:42.470Z,100002.78
2022-11-15T21:01:13.744Z,100010.09
2022-11-15T21:03:41.350Z,100021.28
2022-11-15T21:06:09.122Z,100014.53
2022-11-15T21:08:55.211Z,100006.75
2022-11-15T21:11:41.182Z,100002.16
2022-11-15T21:14:09.733Z,99990.91
2022-11-15T21:16:38.065Z,99962.66
2022-11-15T21:19:06.916Z,99994.59
2022-11-15T21:21:36.147Z,99955.22
2022-11-15T21:24:08.438Z,99985.38
2022-11-15T21:26:36.625Z,99984.50
2022-11-15T21:29:04.801Z,99978.56
2022-11-15T21:31:32.511Z,99970.66
2022-11-15T21:34:04.584Z,99960.53
2022-11-15T21:36:31.891Z,99985.69
2022-11-15T21:38:59.174Z,99984.78
2022-11-15T21:41:26.592Z,99975.19
2022-11-15T21:44:01.344Z,99953.19
2022-11-15T21:46:30.422Z,99978.31
2022-11-15T21:48:58.142Z,99975.94
2022-11-15T21:51:25.734Z,99958.38
2022-11-15T21:53:56.569Z,99953.34
2022-11-15T21:56:25.773Z,99935.50
2022-11-15T21:58:54.113Z,99962.63
2022-11-15T22:01:43.312Z,99948.66
2022-11-15T22:04:10.938Z,99935.16
2022-11-15T22:06:38.665Z,99932.53
2022-11-15T22:09:06.548Z,99923.16
2022-11-15T22:11:34.151Z,99941.84
2022-11-15T22:14:01.871Z,99932.63
2022-11-15T22:16:29.129Z,99918.06
2022-11-15T22:18:56.515Z,99926.69
2022-11-15T22:21:23.842Z,99942.16
2022-11-15T22:23:51.866Z,99933.50
2022-11-15T22:26:23.403Z,99929.28
2022-11-15T22:28:51.646Z,99941.91
2022-11-15T22:31:19.187Z,99942.00
2022-11-15T22:33:47.002Z,99925.19
2022-11-15T22:36:14.372Z,99912.97
2022-11-15T22:38:41.639Z,99932.59
2022-11-15T22:41:08.929Z,99931.56
2022-11-15T22:43:36.226Z,99938.22
2022-11-15T22:46:04.263Z,99897.88
2022-11-15T22:48:37.355Z,99917.50
2022-11-15T22:51:05.853Z,99890.06
2022-11-15T22:53:33.283Z,99898.63
2022-11-15T22:56:02.748Z,99906.94
2022-11-15T22:58:32.115Z,99885.56
2022-11-15T23:01:02.294Z,99906.16
2022-11-15T23:03:30.664Z,99909.56
2022-11-15T23:06:06.274Z,99907.06
2022-11-15T23:08:33.827Z,99903.75
2022-11-15T23:11:21.942Z,99894.97
2022-11-15T23:13:52.802Z,99875.81
2022-11-15T23:16:22.694Z,99892.19
2022-11-15T23:18:50.653Z,99892.00
2022-11-15T23:21:42.739Z,99856.53
2022-11-15T23:24:11.948Z,99860.38
2022-11-15T23:26:39.740Z,99872.56
2022-11-15T23:29:09.466Z,99854.72
2022-11-15T23:32:01.479Z,99859.75
2022-11-15T23:34:35.831Z,99867.38
2022-11-15T23:37:03.645Z,99874.41
2022-11-15T23:39:31.542Z,99868.31
2022-11-15T23:42:01.150Z,99877.03
2022-11-15T23:44:30.446Z,99871.09
2022-11-15T23:46:57.638Z,99840.00
2022-11-15T23:49:24.887Z,99829.94
2022-11-15T23:51:52.214Z,99857.88
2022-11-15T23:54:19.520Z,99835.69
2022-11-15T23:56:46.746Z,99829.34
2022-11-15T23:59:14.018Z,99841.28
